Time;durP1;ratioP1;P1;durP2;ratioP2;P2;SDS_P1;SDS_P2;PMS_P1;PMS_P2;Temp;Humidity;BMP_temperature;BMP_pressure;BME280_temperature;BME280_humidity;BME280_pressure;Samples;Min_cycle;Max_cycle;Signal;HPM_P1;HPM_P2
2022/11/07 00:00:11;;;;;;;8.88;6.32;;;10.60;99.90;;;;;;7386214;19;20015;-53
2022/11/07 00:02:38;;;;;;;11.63;7.30;;;10.60;99.90;;;;;;7383731;19;20029;-53
2022/11/07 00:05:05;;;;;;;8.63;6.53;;;10.60;99.90;;;;;;7387393;19;20019;-54
2022/11/07 00:07:32;;;;;;;9.40;6.63;;;10.60;99.90;;;;;;7385461;19;20018;-52
2022/11/07 00:09:58;;;;;;;10.63;6.50;;;10.70;99.90;;;;;;7385706;19;20014;-53
2022/11/07 00:12:24;;;;;;;7.85;5.80;;;10.70;99.90;;;;;;7383744;19;20019;-52
2022/11/07 00:14:53;;;;;;;7.00;6.28;;;10.70;99.90;;;;;;7384643;19;20011;-52
2022/11/07 00:17:19;;;;;;;8.85;6.90;;;10.70;99.90;;;;;;7380536;19;20506;-53
2022/11/07 00:19:46;;;;;;;12.13;6.50;;;10.70;99.90;;;;;;7384506;19;20029;-52
2022/11/07 00:22:13;;;;;;;10.68;6.60;;;10.70;99.90;;;;;;7383544;19;20066;-51
2022/11/07 00:24:39;;;;;;;9.10;6.57;;;10.80;99.90;;;;;;7377058;19;21231;-52
2022/11/07 00:27:05;;;;;;;8.88;5.97;;;10.80;99.90;;;;;;7377324;19;20731;-52
2022/11/07 00:29:31;;;;;;;8.60;6.05;;;10.90;99.90;;;;;;7373327;19;20379;-59
2022/11/07 00:31:58;;;;;;;10.18;5.60;;;10.90;99.90;;;;;;7379690;19;20529;-53
2022/11/07 00:34:24;;;;;;;8.30;5.82;;;10.80;99.90;;;;;;7381490;19;20042;-52
2022/11/07 00:36:50;;;;;;;11.45;6.20;;;10.90;99.90;;;;;;7382728;19;20017;-53
2022/11/07 00:39:16;;;;;;;8.30;6.18;;;10.80;99.90;;;;;;7381502;19;20042;-53
2022/11/07 00:41:47;;;;;;;9.70;6.28;;;10.90;99.90;;;;;;7383602;19;20478;-52
2022/11/07 00:44:13;;;;;;;8.55;5.93;;;10.90;99.90;;;;;;7384141;19;20612;-53
2022/11/07 00:46:39;;;;;;;8.80;6.07;;;10.90;99.90;;;;;;7374374;19;20423;-53
2022/11/07 00:49:05;;;;;;;9.30;5.65;;;10.90;99.90;;;;;;7375857;19;20015;-53
2022/11/07 00:51:32;;;;;;;10.73;6.20;;;10.90;99.90;;;;;;7374318;19;20027;-53
2022/11/07 00:54:00;;;;;;;11.18;5.40;;;10.90;99.90;;;;;;7383232;19;20022;-51
2022/11/07 00:56:26;;;;;;;9.77;6.45;;;10.90;99.90;;;;;;7378653;19;20025;-52
2022/11/07 00:58:57;;;;;;;15.43;6.65;;;10.80;99.90;;;;;;7378555;19;20026;-53
2022/11/07 01:01:26;;;;;;;11.00;6.35;;;10.70;99.90;;;;;;7375021;19;20026;-53
2022/11/07 01:06:40;;;;;;;10.32;6.78;;;10.70;99.90;;;;;;7380795;19;20090;-52
2022/11/07 01:09:09;;;;;;;9.82;6.22;;;10.70;99.90;;;;;;7380495;19;20022;-53
2022/11/07 01:11:36;;;;;;;13.45;6.38;;;10.80;99.90;;;;;;7375630;19;20022;-52
2022/11/07 01:14:03;;;;;;;14.00;5.90;;;10.80;99.90;;;;;;7377407;19;20094;-53
2022/11/07 01:16:30;;;;;;;11.93;5.97;;;10.80;99.90;;;;;;7379980;19;20109;-53
2022/11/07 01:18:56;;;;;;;7.43;5.90;;;10.80;99.90;;;;;;7379579;19;20517;-51
2022/11/07 01:21:23;;;;;;;11.07;5.65;;;10.80;99.90;;;;;;7379619;19;20010;-52
2022/11/07 01:23:50;;;;;;;8.32;5.72;;;10.80;99.90;;;;;;7381525;19;20022;-53
2022/11/07 01:26:16;;;;;;;12.27;6.28;;;10.80;99.90;;;;;;7381235;19;20014;-53
2022/11/07 01:28:43;;;;;;;11.23;6.25;;;10.80;99.90;;;;;;7383241;19;20018;-51
2022/11/07 01:31:12;;;;;;;9.48;5.47;;;10.90;99.90;;;;;;7381663;19;21605;-53
2022/11/07 01:33:38;;;;;;;9.80;5.70;;;10.90;99.90;;;;;;7374405;19;20489;-54
2022/11/07 01:36:11;;;;;;;12.23;5.88;;;10.90;99.90;;;;;;7383339;19;20043;-53
2022/11/07 01:38:40;;;;;;;10.60;5.80;;;10.90;99.90;;;;;;7381093;19;20021;-53
2022/11/07 01:41:20;;;;;;;10.50;5.95;;;10.90;99.90;;;;;;7384181;19;20018;-53
2022/11/07 01:43:54;;;;;;;11.50;5.32;;;10.90;99.90;;;;;;7379126;19;20015;-52
2022/11/07 01:46:24;;;;;;;11.18;5.38;;;11.00;99.90;;;;;;7372584;19;20022;-52
2022/11/07 01:48:59;;;;;;;8.93;5.88;;;11.00;99.90;;;;;;7375662;19;20022;-53
2022/11/07 01:51:26;;;;;;;7.60;5.18;;;11.00;99.90;;;;;;7377380;19;20376;-52
2022/11/07 01:53:54;;;;;;;10.25;5.75;;;11.10;99.90;;;;;;7378991;19;20052;-53
2022/11/07 01:56:24;;;;;;;9.70;5.32;;;11.10;99.90;;;;;;7378919;19;20031;-53
2022/11/07 01:58:52;;;;;;;10.10;5.55;;;11.10;99.90;;;;;;7378962;19;20082;-53
2022/11/07 02:01:18;;;;;;;11.38;5.30;;;11.10;99.90;;;;;;7376574;19;20113;-54
2022/11/07 02:03:45;;;;;;;15.35;5.47;;;11.20;99.90;;;;;;7378518;19;20046;-52
2022/11/07 02:06:34;;;;;;;11.48;5.65;;;11.20;99.90;;;;;;7373837;19;20023;-53
2022/11/07 02:09:01;;;;;;;8.82;4.80;;;11.10;99.90;;;;;;7379917;19;20014;-53
2022/11/07 02:11:27;;;;;;;12.02;4.72;;;11.20;99.90;;;;;;7380710;19;20048;-53
2022/11/07 02:13:53;;;;;;;6.15;4.40;;;11.20;99.90;;;;;;7379099;19;20018;-54
2022/11/07 02:16:20;;;;;;;9.52;5.35;;;11.20;99.90;;;;;;7381258;19;20026;-53
2022/11/07 02:18:46;;;;;;;7.95;4.50;;;11.10;99.90;;;;;;7379837;19;20033;-53
2022/11/07 02:21:33;;;;;;;11.27;4.82;;;11.10;99.90;;;;;;7378276;19;20022;-53
2022/11/07 02:24:07;;;;;;;9.18;4.50;;;11.10;99.90;;;;;;7374453;19;20018;-54
2022/11/07 02:26:35;;;;;;;8.13;4.40;;;11.20;99.90;;;;;;7379509;19;20433;-54
2022/11/07 02:29:06;;;;;;;8.90;4.15;;;11.20;99.90;;;;;;7365886;19;20014;-52
2022/11/07 02:31:33;;;;;;;11.18;4.63;;;11.20;99.90;;;;;;7376961;19;20511;-54
2022/11/07 02:33:59;;;;;;;8.45;4.38;;;11.20;99.90;;;;;;7367839;19;20094;-53
2022/11/07 02:36:25;;;;;;;11.25;5.53;;;11.20;99.90;;;;;;7365843;19;20572;-53
2022/11/07 02:38:56;;;;;;;9.48;5.70;;;11.20;99.90;;;;;;7374024;19;20045;-54
2022/11/07 02:41:26;;;;;;;10.95;5.13;;;11.20;99.90;;;;;;7374468;19;20565;-53
2022/11/07 02:44:07;;;;;;;8.23;4.55;;;11.20;99.90;;;;;;7373727;19;20017;-53
2022/11/07 02:46:34;;;;;;;9.88;5.00;;;11.20;99.90;;;;;;7370968;19;20500;-54
2022/11/07 02:49:01;;;;;;;10.43;5.03;;;11.30;99.90;;;;;;7373428;19;20018;-53
2022/11/07 02:51:27;;;;;;;12.15;5.10;;;11.30;99.90;;;;;;7372139;19;20014;-55
2022/11/07 02:53:53;;;;;;;10.30;4.75;;;11.30;99.90;;;;;;7369103;19;20018;-54
2022/11/07 02:56:20;;;;;;;9.93;4.50;;;11.30;99.90;;;;;;7361961;19;20046;-52
2022/11/07 02:58:47;;;;;;;10.45;5.18;;;11.30;99.90;;;;;;7360972;19;20509;-52
2022/11/07 03:01:14;;;;;;;14.35;6.05;;;11.30;99.90;;;;;;7360321;19;20965;-53
2022/11/07 03:03:43;;;;;;;13.88;5.78;;;11.20;99.90;;;;;;7360928;19;20018;-51
2022/11/07 03:06:13;;;;;;;11.30;5.30;;;11.20;99.90;;;;;;7363484;19;20114;-52
2022/11/07 03:08:39;;;;;;;12.25;5.68;;;11.10;99.90;;;;;;7358146;19;20015;-54
2022/11/07 03:11:06;;;;;;;9.20;5.60;;;11.10;99.90;;;;;;7365605;19;20025;-52
2022/11/07 03:13:33;;;;;;;12.95;6.25;;;11.10;99.90;;;;;;7371989;19;20026;-53
2022/11/07 03:16:04;;;;;;;13.23;5.60;;;11.10;99.90;;;;;;7364589;19;20679;-52
2022/11/07 03:18:30;;;;;;;12.63;5.70;;;11.00;99.90;;;;;;7364772;19;20374;-54
2022/11/07 03:20:56;;;;;;;16.63;6.47;;;11.00;99.90;;;;;;7369333;19;20042;-51
2022/11/07 03:23:22;;;;;;;12.27;6.70;;;10.90;99.90;;;;;;7369267;19;20444;-52
2022/11/07 03:25:49;;;;;;;11.35;6.13;;;11.00;99.90;;;;;;7372813;19;20030;-50
2022/11/07 03:28:15;;;;;;;14.77;5.90;;;10.90;99.90;;;;;;7367475;19;20482;-52
2022/11/07 03:30:41;;;;;;;12.43;5.95;;;10.80;99.90;;;;;;7368398;19;20022;-52
2022/11/07 03:33:07;;;;;;;13.85;6.22;;;10.80;99.90;;;;;;7379870;19;20331;-51
2022/11/07 03:35:34;;;;;;;12.63;6.05;;;10.80;99.90;;;;;;7371667;19;20059;-53
2022/11/07 03:38:00;;;;;;;9.18;5.57;;;10.90;99.90;;;;;;7363326;19;20019;-53
2022/11/07 03:40:26;;;;;;;12.38;6.05;;;10.90;99.90;;;;;;7373906;19;20042;-54
2022/11/07 03:42:52;;;;;;;17.48;6.07;;;10.90;99.90;;;;;;7377004;19;20011;-54
2022/11/07 03:45:19;;;;;;;13.63;5.45;;;10.90;99.90;;;;;;7377550;19;20018;-55
2022/11/07 03:47:47;;;;;;;12.32;5.40;;;10.90;99.90;;;;;;7373684;19;20505;-53
2022/11/07 03:50:18;;;;;;;13.25;5.65;;;10.90;99.90;;;;;;7372682;19;20039;-54
2022/11/07 03:52:46;;;;;;;11.13;5.32;;;10.90;99.90;;;;;;7372745;19;20366;-55
2022/11/07 03:55:14;;;;;;;9.15;4.68;;;10.90;99.90;;;;;;7368072;19;20019;-55
2022/11/07 03:57:41;;;;;;;11.07;5.20;;;10.90;99.90;;;;;;7374076;19;20015;-53
2022/11/07 04:00:09;;;;;;;9.60;5.20;;;11.00;99.90;;;;;;7371120;19;20014;-53
2022/11/07 04:02:39;;;;;;;12.00;5.90;;;11.00;99.90;;;;;;7363969;19;20105;-52
2022/11/07 04:05:05;;;;;;;18.58;5.65;;;11.10;99.90;;;;;;7356389;19;20015;-52
2022/11/07 04:07:31;;;;;;;13.45;6.07;;;11.10;99.90;;;;;;7354012;19;20014;-53
2022/11/07 04:09:58;;;;;;;13.25;6.00;;;11.20;99.90;;;;;;7360472;19;20022;-51
2022/11/07 04:17:55;;;;;;;14.63;5.57;;;11.20;99.90;;;;;;7363287;19;20022;-53
2022/11/07 04:20:21;;;;;;;11.05;4.93;;;11.20;99.90;;;;;;7351056;19;20585;-53
2022/11/07 04:22:47;;;;;;;8.05;4.57;;;11.20;99.90;;;;;;7350804;19;20050;-51
2022/11/07 04:25:14;;;;;;;13.00;5.20;;;11.30;99.90;;;;;;7355194;19;20027;-50
2022/11/07 04:27:43;;;;;;;13.90;5.70;;;11.20;99.90;;;;;;7357844;19;20060;-52
2022/11/07 04:30:21;;;;;;;9.68;4.55;;;11.20;99.90;;;;;;7352519;19;20023;-51
2022/11/07 04:32:50;;;;;;;11.85;5.25;;;11.20;99.90;;;;;;7350331;19;20470;-51
2022/11/07 04:35:16;;;;;;;13.15;5.20;;;11.10;99.90;;;;;;7354341;19;20356;-53
2022/11/07 04:37:43;;;;;;;12.35;5.20;;;11.10;99.90;;;;;;7352250;19;20047;-53
2022/11/07 04:40:10;;;;;;;11.10;5.10;;;11.10;99.90;;;;;;7354014;19;20030;-50
2022/11/07 04:42:36;;;;;;;10.07;5.18;;;11.10;99.90;;;;;;7359697;19;20455;-52
2022/11/07 04:45:04;;;;;;;10.23;5.20;;;11.00;99.90;;;;;;7350827;19;20533;-52
2022/11/07 04:47:30;;;;;;;14.07;4.90;;;11.00;99.90;;;;;;7352531;19;20022;-53
2022/11/07 04:49:57;;;;;;;11.85;5.20;;;11.00;99.90;;;;;;7364856;19;21351;-54
2022/11/07 04:52:26;;;;;;;10.90;5.15;;;11.00;99.90;;;;;;7368327;19;20026;-52
2022/11/07 04:54:52;;;;;;;11.90;4.57;;;10.90;99.90;;;;;;7370350;19;20082;-51
2022/11/07 04:57:18;;;;;;;14.07;5.82;;;10.90;99.90;;;;;;7358590;19;20442;-52
2022/11/07 04:59:44;;;;;;;12.30;5.35;;;10.90;99.90;;;;;;7359733;19;20022;-52
2022/11/07 05:02:11;;;;;;;11.75;5.57;;;10.80;99.90;;;;;;7361982;19;20026;-50
2022/11/07 05:04:38;;;;;;;11.55;5.05;;;10.80;99.90;;;;;;7358571;19;20110;-52
2022/11/07 05:07:05;;;;;;;13.43;5.63;;;10.80;99.90;;;;;;7361684;19;20015;-51
2022/11/07 05:09:33;;;;;;;13.35;5.70;;;10.70;99.90;;;;;;7356793;19;20018;-52
2022/11/07 05:12:00;;;;;;;10.77;5.05;;;10.70;99.90;;;;;;7361233;19;20018;-53
2022/11/07 05:14:27;;;;;;;14.38;6.25;;;10.60;99.90;;;;;;7360338;19;20032;-50
2022/11/07 05:16:54;;;;;;;10.70;5.90;;;10.50;99.90;;;;;;7358277;19;21015;-53
2022/11/07 05:19:20;;;;;;;15.68;6.53;;;10.60;99.90;;;;;;7362080;19;20019;-53
2022/11/07 05:21:46;;;;;;;11.82;6.38;;;10.60;99.90;;;;;;7361283;19;20019;-53
2022/11/07 05:24:13;;;;;;;13.32;7.45;;;10.60;99.90;;;;;;7373955;19;20022;-53
2022/11/07 05:26:39;;;;;;;13.27;6.13;;;10.70;99.90;;;;;;7366076;19;20409;-52
2022/11/07 05:29:07;;;;;;;14.40;6.50;;;10.70;99.90;;;;;;7361570;19;20094;-51
2022/11/07 05:31:34;;;;;;;14.30;7.03;;;10.80;99.90;;;;;;7360782;19;20038;-52
2022/11/07 05:34:00;;;;;;;12.05;6.53;;;10.70;99.90;;;;;;7365612;19;20494;-54
2022/11/07 05:36:26;;;;;;;11.82;6.80;;;10.70;99.90;;;;;;7371819;19;20813;-50
2022/11/07 05:38:53;;;;;;;10.18;5.95;;;10.80;99.90;;;;;;7358576;19;20018;-52
2022/11/07 05:41:21;;;;;;;15.18;6.45;;;10.70;99.90;;;;;;7372844;19;20029;-53
2022/11/07 05:43:48;;;;;;;13.90;6.50;;;10.70;99.90;;;;;;7370948;19;20109;-53
2022/11/07 05:46:15;;;;;;;10.07;5.63;;;10.70;99.90;;;;;;7374800;19;20044;-53
2022/11/07 05:48:41;;;;;;;14.30;6.30;;;10.70;99.90;;;;;;7361647;19;20018;-54
2022/11/07 05:51:07;;;;;;;11.23;6.60;;;10.80;99.90;;;;;;7366383;19;20018;-53
2022/11/07 05:53:34;;;;;;;17.48;6.45;;;10.80;99.90;;;;;;7364540;19;20046;-54
2022/11/07 05:56:00;;;;;;;10.15;6.82;;;10.80;99.90;;;;;;7372503;19;21053;-54
2022/11/07 05:58:27;;;;;;;15.65;7.40;;;10.80;99.90;;;;;;7358979;19;20620;-51
2022/11/07 06:00:53;;;;;;;14.60;6.28;;;10.90;99.90;;;;;;7358420;19;20486;-52
2022/11/07 06:03:19;;;;;;;11.10;5.70;;;10.90;99.90;;;;;;7365646;19;20031;-51
2022/11/07 06:05:45;;;;;;;16.75;6.10;;;10.90;99.90;;;;;;7358428;19;20354;-54
2022/11/07 06:08:12;;;;;;;10.30;6.03;;;10.90;99.90;;;;;;7357142;19;20467;-54
2022/11/07 06:10:40;;;;;;;12.07;6.70;;;10.90;99.90;;;;;;7371186;19;20019;-55
2022/11/07 06:13:11;;;;;;;9.15;5.82;;;10.90;99.90;;;;;;7375430;19;20356;-51
2022/11/07 06:15:41;;;;;;;13.88;5.60;;;10.90;99.90;;;;;;7364447;19;20021;-52
2022/11/07 06:18:13;;;;;;;11.82;6.68;;;10.90;99.90;;;;;;7373583;19;20400;-54
2022/11/07 06:20:39;;;;;;;12.23;6.88;;;10.90;99.90;;;;;;7370576;19;20498;-55
2022/11/07 06:23:06;;;;;;;14.48;7.25;;;10.90;99.90;;;;;;7360024;19;20023;-52
2022/11/07 06:25:32;;;;;;;10.93;6.65;;;10.90;99.90;;;;;;7354856;19;20927;-51
2022/11/07 06:28:01;;;;;;;15.10;7.18;;;10.90;99.90;;;;;;7358336;19;20018;-55
2022/11/07 06:30:27;;;;;;;12.88;7.55;;;10.90;99.90;;;;;;7352893;19;20078;-50
2022/11/07 06:32:54;;;;;;;12.52;7.28;;;10.90;99.90;;;;;;7355229;19;20022;-51
2022/11/07 06:35:21;;;;;;;17.08;7.70;;;10.80;99.90;;;;;;7363856;19;20022;-55
2022/11/07 06:37:47;;;;;;;18.13;8.50;;;10.80;99.90;;;;;;7372185;19;20388;-55
2022/11/07 06:40:14;;;;;;;17.35;9.40;;;10.80;99.90;;;;;;7356570;19;20599;-54
2022/11/07 06:42:40;;;;;;;18.52;8.85;;;10.70;99.90;;;;;;7369177;19;20458;-54
2022/11/07 06:45:07;;;;;;;18.35;8.60;;;10.80;99.90;;;;;;7357878;19;20014;-50
2022/11/07 06:47:33;;;;;;;17.95;8.73;;;10.80;99.90;;;;;;7357722;19;20404;-51
2022/11/07 06:49:59;;;;;;;13.93;8.70;;;10.80;99.90;;;;;;7359692;19;20011;-53
2022/11/07 06:52:27;;;;;;;14.98;8.45;;;10.80;99.90;;;;;;7368164;19;20084;-55
2022/11/07 06:54:53;;;;;;;16.75;8.43;;;10.90;99.90;;;;;;7377985;19;20540;-55
2022/11/07 06:57:20;;;;;;;15.23;8.65;;;10.90;99.90;;;;;;7373892;19;20376;-54
2022/11/07 06:59:46;;;;;;;19.45;9.38;;;10.90;99.90;;;;;;7375805;19;20353;-55
2022/11/07 07:02:13;;;;;;;21.73;8.90;;;10.90;99.90;;;;;;7377941;19;20010;-54
2022/11/07 07:04:40;;;;;;;18.83;8.30;;;11.00;99.90;;;;;;7376451;19;20466;-52
2022/11/07 07:07:06;;;;;;;21.33;8.57;;;11.00;99.90;;;;;;7370995;19;20490;-49
2022/11/07 07:09:33;;;;;;;18.75;8.48;;;11.00;99.90;;;;;;7373376;19;20027;-53
2022/11/07 07:12:00;;;;;;;15.80;8.68;;;11.10;99.90;;;;;;7374788;19;20015;-53
2022/11/07 07:14:26;;;;;;;15.27;8.25;;;11.10;99.90;;;;;;7367230;19;20022;-53
2022/11/07 07:16:57;;;;;;;14.60;7.22;;;11.10;99.90;;;;;;7366929;19;20628;-51
2022/11/07 07:19:24;;;;;;;11.15;7.03;;;11.20;99.90;;;;;;7368645;19;20577;-51
2022/11/07 07:21:50;;;;;;;14.32;7.70;;;11.20;99.90;;;;;;7372692;19;20549;-53
2022/11/07 07:24:17;;;;;;;11.35;6.70;;;11.20;99.90;;;;;;7374773;19;20102;-55
2022/11/07 07:26:43;;;;;;;13.65;6.70;;;11.20;99.90;;;;;;7373138;19;20017;-50
2022/11/07 07:29:12;;;;;;;16.00;7.15;;;11.30;99.90;;;;;;7367894;19;20399;-51
2022/11/07 07:31:39;;;;;;;17.67;7.07;;;11.30;99.90;;;;;;7374015;19;20026;-53
2022/11/07 07:34:05;;;;;;;18.48;7.18;;;11.30;99.90;;;;;;7368362;19;21300;-51
2022/11/07 07:36:32;;;;;;;12.77;7.47;;;11.30;99.90;;;;;;7364371;19;20094;-52
2022/11/07 07:38:58;;;;;;;11.45;5.75;;;11.40;99.90;;;;;;7370043;19;20466;-52
2022/11/07 07:41:24;;;;;;;13.50;6.28;;;11.40;99.90;;;;;;7367536;19;20067;-50
2022/11/07 07:43:51;;;;;;;15.60;6.45;;;11.50;99.90;;;;;;7367304;19;20073;-54
2022/11/07 07:46:21;;;;;;;13.90;5.57;;;11.50;99.90;;;;;;7375403;19;20025;-51
2022/11/07 07:48:48;;;;;;;14.63;6.57;;;11.50;99.90;;;;;;7368682;19;20510;-52
2022/11/07 07:51:14;;;;;;;15.88;6.13;;;11.60;99.90;;;;;;7371479;19;20018;-52
2022/11/07 07:53:40;;;;;;;11.93;5.75;;;11.70;99.90;;;;;;7374958;19;20015;-56
2022/11/07 07:56:07;;;;;;;15.88;5.50;;;11.60;99.90;;;;;;7377118;19;20576;-55
2022/11/07 07:58:33;;;;;;;15.60;6.40;;;11.60;99.90;;;;;;7386362;19;20020;-52
2022/11/07 08:01:00;;;;;;;16.40;5.88;;;11.60;99.90;;;;;;7374555;19;20014;-52
2022/11/07 08:03:27;;;;;;;14.95;6.15;;;11.70;99.90;;;;;;7387201;19;20455;-55
2022/11/07 08:05:57;;;;;;;17.95;5.57;;;11.70;99.90;;;;;;7379988;19;20035;-53
2022/11/07 08:08:24;;;;;;;10.10;5.30;;;11.70;99.90;;;;;;7372612;19;20025;-51
2022/11/07 08:10:54;;;;;;;15.00;5.18;;;11.70;99.90;;;;;;7372370;19;20019;-54
2022/11/07 08:13:25;;;;;;;12.77;5.35;;;11.80;99.90;;;;;;7385658;19;20480;-54
2022/11/07 08:15:52;;;;;;;13.07;5.95;;;11.80;99.90;;;;;;7382489;19;20039;-54
2022/11/07 08:18:20;;;;;;;11.02;5.13;;;11.90;99.90;;;;;;7385056;19;20011;-52
2022/11/07 08:20:52;;;;;;;16.05;5.13;;;11.90;99.90;;;;;;7382862;19;20513;-56
2022/11/07 08:23:18;;;;;;;13.27;5.38;;;11.90;99.90;;;;;;7385816;19;20022;-53
2022/11/07 08:25:50;;;;;;;12.68;5.05;;;11.90;99.90;;;;;;7383146;19;20478;-54
2022/11/07 08:28:16;;;;;;;15.65;5.22;;;12.00;99.90;;;;;;7381766;19;20022;-54
2022/11/07 08:30:42;;;;;;;13.40;5.22;;;12.00;99.90;;;;;;7378262;19;20107;-54
2022/11/07 08:33:09;;;;;;;11.63;5.00;;;12.10;99.90;;;;;;7373671;19;20014;-54
2022/11/07 08:35:35;;;;;;;12.20;5.05;;;12.10;99.90;;;;;;7371276;19;20014;-54
2022/11/07 08:38:01;;;;;;;14.07;4.53;;;12.20;99.90;;;;;;7372307;19;20025;-55
2022/11/07 08:40:27;;;;;;;11.50;4.90;;;12.20;99.90;;;;;;7372659;19;20018;-55
2022/11/07 08:42:59;;;;;;;14.52;5.03;;;12.20;99.90;;;;;;7372586;19;20010;-52
2022/11/07 08:45:25;;;;;;;13.65;4.90;;;12.20;99.90;;;;;;7365363;19;20025;-52
2022/11/07 08:47:58;;;;;;;17.95;4.97;;;12.20;99.90;;;;;;7357866;19;20123;-53
2022/11/07 08:50:26;;;;;;;14.27;4.55;;;12.20;99.90;;;;;;7357789;19;20022;-52
2022/11/07 08:52:53;;;;;;;13.55;5.15;;;12.20;99.90;;;;;;7363657;19;20026;-54
2022/11/07 08:55:19;;;;;;;8.95;3.85;;;12.20;99.90;;;;;;7374518;19;20014;-54
2022/11/07 08:57:45;;;;;;;12.82;3.90;;;12.20;99.90;;;;;;7368492;19;20018;-53
2022/11/07 09:00:12;;;;;;;13.68;5.18;;;12.20;99.90;;;;;;7370958;19;20022;-54
2022/11/07 09:02:38;;;;;;;13.20;4.05;;;12.20;99.90;;;;;;7371501;19;20014;-55
2022/11/07 09:05:05;;;;;;;15.02;4.80;;;12.20;99.90;;;;;;7372584;19;20030;-54
2022/11/07 09:07:31;;;;;;;13.50;4.35;;;12.20;99.90;;;;;;7362881;19;20018;-48
2022/11/07 09:09:58;;;;;;;9.68;3.70;;;12.20;99.90;;;;;;7359229;19;20410;-54
2022/11/07 09:12:24;;;;;;;9.85;4.35;;;12.20;99.90;;;;;;7357011;19;20023;-52
2022/11/07 09:14:50;;;;;;;14.82;4.28;;;12.20;99.90;;;;;;7363780;19;20057;-49
2022/11/07 09:17:16;;;;;;;9.30;4.22;;;12.20;99.90;;;;;;7358725;19;20050;-49
2022/11/07 09:19:43;;;;;;;15.52;4.22;;;12.20;99.90;;;;;;7359426;19;20040;-50
2022/11/07 09:22:10;;;;;;;13.15;3.95;;;12.20;99.90;;;;;;7353370;19;20975;-52
2022/11/07 09:24:36;;;;;;;14.93;4.78;;;12.20;99.90;;;;;;7359291;19;20018;-52
2022/11/07 09:27:03;;;;;;;11.07;3.90;;;12.20;99.90;;;;;;7357972;19;20030;-51
2022/11/07 09:29:29;;;;;;;10.75;3.55;;;12.10;99.90;;;;;;7355329;19;20018;-48
2022/11/07 09:31:55;;;;;;;12.85;4.20;;;12.20;99.90;;;;;;7353072;19;20423;-52
2022/11/07 09:34:21;;;;;;;11.98;3.42;;;12.20;99.90;;;;;;7359427;19;20583;-51
2022/11/07 09:36:48;;;;;;;7.90;3.67;;;12.20;99.90;;;;;;7354193;19;20019;-50
2022/11/07 09:39:14;;;;;;;8.88;4.07;;;12.20;99.90;;;;;;7354116;19;20037;-53
2022/11/07 09:41:40;;;;;;;10.30;4.35;;;12.30;99.90;;;;;;7367456;19;20040;-55
2022/11/07 09:44:25;;;;;;;11.82;4.18;;;12.50;99.90;;;;;;7372663;19;20014;-55
2022/11/07 09:47:21;;;;;;;13.38;4.03;;;12.50;99.90;;;;;;7370580;19;20015;-54
2022/11/07 09:49:51;;;;;;;11.15;3.83;;;12.60;99.90;;;;;;7370379;19;20042;-54
2022/11/07 09:52:51;;;;;;;11.35;3.67;;;12.60;99.90;;;;;;7377052;19;20368;-55
2022/11/07 09:55:28;;;;;;;13.35;3.97;;;12.70;99.90;;;;;;7381398;19;20014;-54
2022/11/07 09:58:02;;;;;;;15.75;4.57;;;12.70;99.90;;;;;;7379968;19;20011;-54
2022/11/07 10:00:31;;;;;;;9.38;3.97;;;12.70;99.90;;;;;;7381324;19;20083;-55
2022/11/07 10:03:00;;;;;;;12.73;4.00;;;12.80;99.90;;;;;;7379506;19;20021;-55
2022/11/07 10:05:41;;;;;;;9.60;4.43;;;12.70;99.90;;;;;;7379327;19;20431;-55
2022/11/07 10:08:49;;;;;;;11.50;4.18;;;12.60;99.90;;;;;;7383413;19;20035;-55
2022/11/07 10:11:36;;;;;;;13.20;4.50;;;12.60;99.90;;;;;;7382962;19;20025;-55
2022/11/07 10:14:14;;;;;;;13.95;4.95;;;12.50;99.90;;;;;;7380850;19;20030;-55
2022/11/07 10:17:07;;;;;;;10.90;4.45;;;12.50;99.90;;;;;;7379586;19;20026;-55
2022/11/07 10:20:01;;;;;;;7.78;4.57;;;12.70;99.90;;;;;;7376320;19;20062;-53
2022/11/07 10:23:00;;;;;;;11.25;4.55;;;12.90;99.90;;;;;;7379470;19;20049;-53
2022/11/07 10:25:32;;;;;;;10.85;4.03;;;13.10;99.90;;;;;;7375209;19;20022;-56
2022/11/07 10:28:15;;;;;;;13.35;4.25;;;13.10;99.90;;;;;;7380460;19;20052;-54
2022/11/07 10:30:46;;;;;;;11.25;4.28;;;13.10;99.90;;;;;;7379743;19;20490;-54
2022/11/07 10:33:49;;;;;;;11.55;4.25;;;13.20;99.90;;;;;;7377374;19;20086;-52
2022/11/07 10:36:19;;;;;;;8.70;4.88;;;13.30;99.90;;;;;;7371317;19;20014;-48
2022/11/07 10:38:45;;;;;;;9.18;3.67;;;13.30;99.90;;;;;;7368837;19;20014;-52
2022/11/07 10:41:17;;;;;;;12.35;4.78;;;13.30;99.90;;;;;;7369457;19;20026;-51
2022/11/07 10:43:48;;;;;;;;;;;13.30;99.90;;;;;;7372310;19;20014;-52
2022/11/07 10:46:32;;;;;;;11.20;4.10;;;13.20;99.90;;;;;;7369617;19;19922;-48
2022/11/07 10:49:03;;;;;;;14.82;3.70;;;13.30;99.90;;;;;;7365675;19;20488;-50
2022/11/07 10:51:34;;;;;;;10.57;3.70;;;13.30;99.90;;;;;;7371620;19;20026;-50
2022/11/07 10:54:00;;;;;;;11.75;3.08;;;13.40;99.90;;;;;;7365395;19;20316;-48
2022/11/07 10:56:27;;;;;;;9.73;4.00;;;13.50;99.90;;;;;;7365583;19;20557;-38
2022/11/07 10:58:53;;;;;;;9.40;3.80;;;13.60;99.90;;;;;;7369863;19;20015;-37
2022/11/07 11:01:26;;;;;;;8.93;3.70;;;13.70;99.90;;;;;;7367788;19;20623;-37
2022/11/07 11:03:53;;;;;;;13.05;3.83;;;13.70;99.90;;;;;;7366751;19;20595;-37
2022/11/07 11:06:23;;;;;;;10.65;3.65;;;13.80;99.90;;;;;;7369866;19;20022;-37
2022/11/07 11:08:51;;;;;;;8.57;3.33;;;13.90;99.90;;;;;;7366632;19;20022;-47
2022/11/07 11:11:20;;;;;;;14.15;3.95;;;13.80;99.90;;;;;;7370947;19;20018;-50
2022/11/07 11:14:05;;;;;;;14.43;4.38;;;13.90;99.90;;;;;;7368742;19;20015;-38
2022/11/07 11:16:36;;;;;;;8.10;2.90;;;13.90;99.90;;;;;;7367856;19;20014;-52
2022/11/07 11:19:04;;;;;;;11.57;3.38;;;13.80;99.90;;;;;;7368012;19;20035;-37
2022/11/07 11:21:43;;;;;;;8.15;3.00;;;13.80;99.90;;;;;;7366104;19;20348;-50
2022/11/07 11:24:36;;;;;;;12.68;4.03;;;13.80;99.90;;;;;;7368142;19;20018;-49
2022/11/07 11:27:13;;;;;;;9.07;3.67;;;13.90;99.90;;;;;;7368612;19;20736;-52
2022/11/07 11:30:06;;;;;;;11.57;3.58;;;14.00;99.90;;;;;;7366891;19;20038;-51
2022/11/07 11:32:32;;;;;;;10.20;4.03;;;14.00;99.90;;;;;;7371952;19;20434;-50
2022/11/07 11:35:07;;;;;;;10.00;3.30;;;14.10;99.90;;;;;;7376166;19;20615;-50
2022/11/07 11:37:40;;;;;;;11.50;3.00;;;14.10;99.90;;;;;;7371970;19;20659;-49
2022/11/07 11:40:27;;;;;;;10.93;3.60;;;14.10;99.90;;;;;;7377409;19;20018;-50
2022/11/07 11:43:03;;;;;;;7.78;2.88;;;14.10;99.90;;;;;;7376697;19;20559;-51
2022/11/07 11:45:53;;;;;;;11.73;4.28;;;14.10;99.90;;;;;;7373111;19;20014;-37
2022/11/07 11:48:24;;;;;;;7.72;3.03;;;14.10;99.90;;;;;;7376824;19;20045;-37
2022/11/07 11:50:56;;;;;;;8.60;3.27;;;14.00;99.90;;;;;;7376816;19;20387;-37
2022/11/07 11:53:23;;;;;;;8.68;3.47;;;13.90;99.90;;;;;;7377559;19;20302;-37
2022/11/07 11:56:21;;;;;;;10.32;3.70;;;13.90;99.90;;;;;;7371375;19;20022;-38
2022/11/07 11:59:03;;;;;;;10.57;3.28;;;13.90;99.90;;;;;;7370586;19;20125;-38
2022/11/07 12:01:32;;;;;;;11.65;3.60;;;13.90;99.90;;;;;;7373462;19;20450;-39
2022/11/07 12:04:16;;;;;;;11.02;3.20;;;13.90;99.90;;;;;;7373189;19;20595;-38
2022/11/07 12:06:46;;;;;;;8.95;3.22;;;13.90;99.90;;;;;;7376992;19;20558;-38
2022/11/07 12:09:44;;;;;;;12.98;3.38;;;13.90;99.90;;;;;;7373339;19;20429;-38
2022/11/07 12:12:28;;;;;;;9.75;3.40;;;13.90;99.90;;;;;;7372854;19;20022;-52
2022/11/07 12:15:23;;;;;;;10.70;3.47;;;14.00;99.90;;;;;;7373510;19;20508;-49
2022/11/07 12:18:11;;;;;;;9.23;3.45;;;14.00;99.90;;;;;;7372364;19;20022;-53
2022/11/07 12:20:40;;;;;;;10.55;3.67;;;14.10;99.90;;;;;;7373994;19;20490;-38
2022/11/07 12:23:22;;;;;;;7.95;3.60;;;14.10;99.90;;;;;;7373531;19;20022;-38
2022/11/07 12:26:08;;;;;;;10.52;3.95;;;14.20;99.90;;;;;;7372686;19;20538;-39
2022/11/07 12:28:40;;;;;;;9.18;3.17;;;14.40;99.90;;;;;;7374120;19;20086;-53
2022/11/07 12:31:30;;;;;;;8.93;3.53;;;14.40;99.90;;;;;;7375586;19;20490;-53
2022/11/07 12:34:11;;;;;;;9.43;3.40;;;14.40;99.90;;;;;;7375268;19;20022;-38
2022/11/07 12:37:02;;;;;;;9.45;3.40;;;14.40;99.90;;;;;;7366368;19;20490;-44
2022/11/07 12:39:45;;;;;;;8.07;3.03;;;14.30;99.90;;;;;;7369005;19;20099;-38
2022/11/07 12:42:26;;;;;;;9.75;3.13;;;14.30;99.90;;;;;;7373801;19;20669;-38
2022/11/07 12:45:34;;;;;;;6.40;2.88;;;14.40;99.90;;;;;;7374426;19;20501;-39
2022/11/07 12:48:07;;;;;;;7.32;3.20;;;14.50;99.90;;;;;;7375757;19;20018;-38
2022/11/07 12:50:54;;;;;;;9.52;2.95;;;14.40;99.90;;;;;;7371759;19;20086;-38
2022/11/07 12:53:35;;;;;;;8.73;3.50;;;14.30;99.90;;;;;;7373066;19;20007;-53
2022/11/07 12:56:18;;;;;;;9.85;3.65;;;14.30;99.90;;;;;;7368631;19;20021;-51
2022/11/07 12:58:47;;;;;;;8.88;4.22;;;14.20;99.90;;;;;;7376499;19;20006;-51
2022/11/07 13:01:19;;;;;;;7.53;3.08;;;14.20;99.90;;;;;;7373361;19;20449;-38
2022/11/07 13:03:45;;;;;;;7.18;3.03;;;14.20;99.90;;;;;;7370708;19;20018;-38